Time;durP1;ratioP1;P1;durP2;ratioP2;P2;SDS_P1;SDS_P2;PMS_P1;PMS_P2;Temp;Humidity;BMP_temperature;BMP_pressure;BME280_temperature;BME280_humidity;BME280_pressure;Samples;Min_cycle;Max_cycle;Signal;HPM_P1;HPM_P2
2022/02/07 00:01:09;;;;;;;8.55;3.70;;;;;;;4.68;52.46;99410.28;1696257;83;21116;-59
2022/02/07 00:05:58;;;;;;;6.97;3.77;;;;;;;4.69;52.48;99409.33;1682688;83;20987;-59
2022/02/07 00:08:25;;;;;;;7.92;4.12;;;;;;;4.65;52.50;99418.66;1736163;81;21232;-59
2022/02/07 00:10:52;;;;;;;8.50;3.87;;;;;;;4.62;52.58;99420.20;1741053;81;21086;-59
2022/02/07 00:13:20;;;;;;;7.50;3.47;;;;;;;4.60;52.60;99414.72;1739329;81;21026;-59
2022/02/07 00:15:46;;;;;;;8.03;3.50;;;;;;;4.58;52.63;99404.88;1731154;81;21019;-59
2022/02/07 00:18:13;;;;;;;6.62;3.17;;;;;;;4.59;52.65;99406.53;1728066;80;21094;-59
2022/02/07 00:20:41;;;;;;;9.13;3.55;;;;;;;4.59;52.64;99400.02;1737391;80;21050;-59
2022/02/07 00:23:08;;;;;;;5.85;3.10;;;;;;;4.57;52.77;99398.00;1679209;83;21145;-59
2022/02/07 00:25:36;;;;;;;9.10;4.22;;;;;;;4.58;52.79;99393.16;1710953;83;21066;-59
2022/02/07 00:28:04;;;;;;;7.45;3.60;;;;;;;4.57;52.81;99386.27;1681010;83;21039;-59
2022/02/07 00:30:31;;;;;;;10.82;4.00;;;;;;;4.53;52.91;99385.66;1697556;82;21007;-59
2022/02/07 00:32:57;;;;;;;7.22;3.83;;;;;;;4.53;52.96;99375.72;1699130;82;21159;-59
2022/02/07 00:35:24;;;;;;;8.23;3.70;;;;;;;4.55;53.00;99381.65;1708535;82;21044;-58
2022/02/07 00:37:54;;;;;;;7.53;3.65;;;;;;;4.55;52.95;99372.53;1741912;81;21031;-58
2022/02/07 00:43:02;;;;;;;8.43;3.25;;;;;;;4.54;53.11;99372.16;1737478;80;21015;-58
2022/02/07 00:48:08;;;;;;;7.95;3.62;;;;;;;4.52;53.25;99357.94;1738095;81;21857;-59
2022/02/07 00:50:38;;;;;;;6.17;3.15;;;;;;;4.53;53.31;99350.49;1725127;81;21186;-59
2022/02/07 00:53:11;;;;;;;6.70;3.52;;;;;;;4.53;53.42;99350.97;1686989;83;21067;-58
2022/02/07 00:55:34;;;;;;;6.60;3.55;;;;;;;4.55;53.43;99351.69;1689288;83;21094;-59
2022/02/07 00:58:01;;;;;;;7.00;3.77;;;;;;;4.57;53.41;99353.70;1724931;81;21156;-58
2022/02/07 01:00:29;;;;;;;6.03;3.40;;;;;;;4.58;53.39;99350.17;1730124;81;21887;-58
2022/02/07 01:02:56;;;;;;;7.15;3.77;;;;;;;4.55;53.43;99338.19;1719964;81;21526;-58
2022/02/07 01:05:23;;;;;;;8.05;4.20;;;;;;;4.53;53.42;99333.56;1691092;82;21140;-58
2022/02/07 01:07:52;;;;;;;5.83;3.10;;;;;;;4.57;53.48;99338.08;1728616;81;21078;-58
2022/02/07 01:10:27;;;;;;;7.67;4.47;;;;;;;4.57;53.37;99325.91;1724515;81;21102;-58
2022/02/07 01:54:12;;;;;;;10.38;4.30;;;;;;;4.52;53.65;99234.19;1722567;82;21059;-59
2022/02/07 01:55:45;;;;;;;8.85;4.05;;;;;;;4.57;53.47;99228.20;1702728;80;21106;-59
2022/02/07 01:58:12;;;;;;;8.43;4.40;;;;;;;4.63;53.32;99226.42;1726318;80;21048;-59
2022/02/07 02:00:41;;;;;;;8.20;4.80;;;;;;;4.58;53.39;99230.33;1709763;81;21036;-59
2022/02/07 02:03:09;;;;;;;8.18;3.75;;;;;;;4.59;53.45;99228.91;1730710;80;21197;-58
2022/02/07 02:05:38;;;;;;;8.33;4.00;;;;;;;4.58;53.34;99223.81;1703715;82;21701;-59
2022/02/07 02:08:11;;;;;;;6.90;3.75;;;;;;;4.53;53.51;99216.81;1701209;82;21082;-58
2022/02/07 02:10:43;;;;;;;9.00;4.33;;;;;;;4.51;53.53;99213.49;1719084;80;21083;-57
2022/02/07 02:13:16;;;;;;;8.80;3.95;;;;;;;4.50;53.61;99207.43;1697193;82;21043;-57
2022/02/07 02:21:34;;;;;;;8.93;4.10;;;;;;;4.54;53.52;99197.61;1727644;81;22086;-59
2022/02/07 02:45:30;;;;;;;7.22;3.00;;;;;;;4.53;53.38;99180.34;1693612;83;21062;-58
2022/02/07 02:47:55;;;;;;;7.25;3.70;;;;;;;4.53;53.05;99172.04;1706605;82;21128;-59
2022/02/07 02:50:34;;;;;;;6.92;3.60;;;;;;;4.55;53.13;99168.84;1690257;83;21090;-59
2022/02/07 02:53:11;;;;;;;8.85;3.33;;;;;;;4.56;52.93;99156.19;1700184;83;21039;-59
2022/02/07 02:55:41;;;;;;;8.25;3.80;;;;;;;4.59;52.90;99158.56;1673253;84;21102;-59
2022/02/07 02:58:10;;;;;;;7.75;2.85;;;;;;;4.59;52.97;99162.47;1698288;82;21020;-59
2022/02/07 03:00:39;;;;;;;6.80;4.42;;;;;;;4.60;52.97;99156.30;1673614;83;21024;-58
2022/02/07 03:03:09;;;;;;;5.45;3.00;;;;;;;4.63;52.92;99153.47;1691306;82;21106;-58
2022/02/07 03:07:32;;;;;;;6.08;3.35;;;;;;;4.45;53.35;99158.75;1773025;77;23274;-59
2022/02/07 03:10:02;;;;;;;7.37;3.25;;;;;;;4.58;52.99;99164.71;1750879;80;21004;-59
2022/02/07 03:12:33;;;;;;;7.10;3.52;;;;;;;4.65;52.82;99158.56;1747230;80;21223;-59
2022/02/07 03:16:36;;;;;;;8.05;3.22;;;;;;;4.66;52.65;99158.94;1750821;80;21551;-59
2022/02/07 03:17:27;;;;;;;5.67;2.67;;;;;;;4.68;52.56;99153.61;1750623;80;20978;-59
2022/02/07 03:19:54;;;;;;;8.05;2.92;;;;;;;4.70;52.33;99146.02;1750566;80;21023;-59
2022/02/07 03:22:20;;;;;;;6.25;3.42;;;;;;;4.72;52.44;99148.03;1732222;80;21582;-59
2022/02/07 03:24:46;;;;;;;6.75;3.10;;;;;;;4.79;52.38;99143.19;1748807;80;21100;-59
2022/02/07 03:27:13;;;;;;;7.70;3.27;;;;;;;4.83;52.31;99131.59;1748437;80;21580;-59
2022/02/07 03:29:41;;;;;;;7.17;3.22;;;;;;;4.87;52.13;99136.09;1750947;80;20971;-59
2022/02/07 03:32:10;;;;;;;7.90;3.10;;;;;;;4.88;52.19;99131.26;1748579;80;21483;-58
2022/02/07 03:34:47;;;;;;;5.60;2.85;;;;;;;4.87;51.98;99130.41;1750644;80;21000;-59
2022/02/07 03:37:15;;;;;;;6.37;2.95;;;;;;;4.88;51.78;99120.83;1742987;80;21229;-59
2022/02/07 03:39:44;;;;;;;6.33;3.00;;;;;;;4.88;51.89;99112.53;1750500;80;21046;-59
2022/02/07 03:42:11;;;;;;;5.92;2.62;;;;;;;4.90;51.94;99113.72;1707712;81;21015;-59
2022/02/07 03:44:40;;;;;;;7.20;3.17;;;;;;;4.92;51.85;99106.60;1742956;80;21073;-59
2022/02/07 03:47:06;;;;;;;7.42;3.17;;;;;;;4.92;51.77;99110.52;1727394;80;21018;-59
2022/02/07 03:49:33;;;;;;;6.58;3.00;;;;;;;4.94;51.53;99105.55;1751422;80;21131;-59
2022/02/07 03:52:00;;;;;;;9.65;3.35;;;;;;;4.94;51.43;99098.19;1741381;80;21043;-59
2022/02/07 03:54:27;;;;;;;6.62;3.70;;;;;;;4.93;51.65;99088.72;1748390;80;21070;-59
2022/02/07 03:56:55;;;;;;;7.15;2.87;;;;;;;4.95;51.65;99081.61;1752062;80;21035;-60
2022/02/07 03:59:22;;;;;;;8.60;3.15;;;;;;;4.95;51.70;99078.52;1749361;80;21076;-59
2022/02/07 04:01:48;;;;;;;6.65;3.02;;;;;;;4.97;51.69;99079.70;1743310;80;21396;-59
2022/02/07 04:04:17;;;;;;;6.20;3.05;;;;;;;5.00;51.59;99096.41;1748468;80;21038;-59
2022/02/07 04:06:45;;;;;;;6.50;3.40;;;;;;;4.99;51.46;99086.92;1743381;80;21071;-59
2022/02/07 04:09:21;;;;;;;6.22;3.45;;;;;;;4.97;51.47;99087.04;1733188;80;21090;-59
2022/02/07 04:11:56;;;;;;;7.47;3.37;;;;;;;4.97;51.51;99081.83;1737441;80;21094;-59
2022/02/07 04:14:21;;;;;;;7.17;3.33;;;;;;;4.90;51.63;99078.05;1698028;82;21115;-59
2022/02/07 04:16:44;;;;;;;8.15;3.50;;;;;;;4.89;51.55;99086.80;1686302;83;21085;-60
2022/02/07 04:19:19;;;;;;;8.73;4.30;;;;;;;4.88;51.50;99086.95;1734482;80;21372;-60
2022/02/07 04:21:45;;;;;;;8.25;3.58;;;;;;;4.86;51.59;99088.36;1737034;80;21078;-59
2022/02/07 04:24:13;;;;;;;7.65;3.90;;;;;;;4.85;51.55;99074.97;1740277;80;21090;-59
2022/02/07 04:26:50;;;;;;;8.33;3.70;;;;;;;4.84;51.47;99079.81;1725184;81;21190;-59
2022/02/07 04:29:16;;;;;;;9.93;4.15;;;;;;;4.86;51.37;99076.64;1686199;82;21031;-59
2022/02/07 04:31:43;;;;;;;7.08;3.98;;;;;;;4.84;51.42;99074.14;1740705;80;21043;-59
2022/02/07 04:34:11;;;;;;;7.67;3.87;;;;;;;4.82;51.49;99072.59;1737151;80;21086;-60
2022/02/07 04:36:41;;;;;;;8.18;4.35;;;;;;;4.83;51.47;99068.56;1741922;80;22256;-60
2022/02/07 04:39:06;;;;;;;7.50;3.83;;;;;;;4.87;51.52;99073.55;1724799;80;21290;-60
2022/02/07 04:41:34;;;;;;;6.83;3.42;;;;;;;4.87;51.53;99061.33;1736778;80;21568;-59
2022/02/07 04:44:07;;;;;;;8.73;4.03;;;;;;;4.86;51.33;99057.54;1734646;80;21031;-60
2022/02/07 04:46:45;;;;;;;8.48;3.40;;;;;;;4.84;51.43;99061.56;1724643;81;21094;-60
2022/02/07 04:49:39;;;;;;;8.00;4.00;;;;;;;4.82;51.50;99049.13;1733146;80;21078;-60
2022/02/07 05:04:44;;;;;;;;;;;;;;;4.72;51.79;99051.61;1710427;81;22338;-59
2022/02/07 05:15:25;;;;;;;7.87;3.65;;;;;;;4.58;53.61;99059.20;1734018;80;21012;-60
2022/02/07 05:17:52;;;;;;;8.60;4.08;;;;;;;4.53;54.18;99056.59;1735984;80;22401;-58
2022/02/07 05:20:27;;;;;;;12.35;4.67;;;;;;;4.49;54.71;99060.36;1733421;80;21100;-59
2022/02/07 05:23:12;;;;;;;6.35;3.40;;;;;;;4.45;55.22;99059.31;1734504;80;21059;-59
2022/02/07 05:25:38;;;;;;;9.10;3.90;;;;;;;4.43;55.54;99059.88;1706528;82;21066;-62
2022/02/07 05:28:10;;;;;;;7.03;3.98;;;;;;;4.46;55.93;99044.51;1726728;81;21549;-60
2022/02/07 05:30:55;;;;;;;8.80;4.58;;;;;;;4.51;56.11;99047.59;1734125;80;22260;-60
2022/02/07 05:33:32;;;;;;;10.88;5.30;;;;;;;4.52;56.45;99038.81;1737013;80;21035;-61
2022/02/07 05:36:01;;;;;;;8.48;4.10;;;;;;;4.55;56.77;99041.19;1712278;82;21083;-62
2022/02/07 05:38:41;;;;;;;9.25;5.00;;;;;;;4.57;56.95;99045.83;1730308;80;21036;-59
2022/02/07 05:41:09;;;;;;;11.60;5.25;;;;;;;4.57;57.14;99040.63;1731196;80;21071;-60
2022/02/07 05:43:44;;;;;;;11.73;4.95;;;;;;;4.57;57.35;99040.63;1743071;80;21316;-60
2022/02/07 05:46:11;;;;;;;9.25;4.72;;;;;;;4.53;57.69;99039.18;1731723;80;21118;-60
2022/02/07 05:48:49;;;;;;;9.13;4.50;;;;;;;4.54;57.85;99034.34;1733305;80;21032;-60
2022/02/07 05:51:34;;;;;;;9.05;4.70;;;;;;;4.55;58.11;99039.06;1720179;80;21126;-58
2022/02/07 05:54:02;;;;;;;9.23;4.25;;;;;;;4.57;58.23;99040.63;1705299;80;21039;-59
2022/02/07 05:56:37;;;;;;;13.03;4.95;;;;;;;4.63;58.36;99034.92;1717083;80;21105;-59
2022/02/07 05:59:22;;;;;;;10.18;3.80;;;;;;;4.78;58.37;99033.39;1733833;80;20992;-59
2022/02/07 06:01:59;;;;;;;8.63;4.40;;;;;;;4.94;58.37;99026.50;1732540;80;21003;-59
2022/02/07 06:04:26;;;;;;;11.55;4.80;;;;;;;5.09;58.46;99022.68;1731407;80;21090;-58
2022/02/07 06:06:54;;;;;;;11.12;5.60;;;;;;;5.25;58.39;99030.12;1721682;81;22274;-59
2022/02/07 06:09:22;;;;;;;9.23;4.83;;;;;;;5.34;58.27;99022.86;1751026;79;21982;-59
2022/02/07 06:11:50;;;;;;;10.48;5.20;;;;;;;5.44;58.07;99024.26;1748013;80;21765;-59
2022/02/07 06:14:17;;;;;;;10.78;4.67;;;;;;;5.49;57.99;99035.16;1728342;81;21026;-59
2022/02/07 06:16:45;;;;;;;7.28;4.08;;;;;;;5.53;57.96;99039.19;1748197;80;21066;-59
2022/02/07 06:19:12;;;;;;;11.65;5.33;;;;;;;5.51;57.73;99042.38;1748464;80;21074;-59
2022/02/07 06:21:41;;;;;;;12.25;6.78;;;;;;;5.46;57.70;99048.92;1749173;80;21892;-59
2022/02/07 06:24:07;;;;;;;16.95;8.75;;;;;;;5.38;57.82;99047.77;1746327;80;21101;-60
2022/02/07 06:26:34;;;;;;;15.15;8.88;;;;;;;5.31;58.14;99043.15;1747979;80;21101;-60
2022/02/07 06:29:03;;;;;;;17.25;7.37;;;;;;;5.29;58.19;99040.66;1747559;80;21656;-60
2022/02/07 06:31:31;;;;;;;12.07;7.78;;;;;;;5.21;58.29;99037.83;1749897;80;21670;-59
2022/02/07 06:34:00;;;;;;;15.55;8.08;;;;;;;5.16;58.49;99034.30;1746899;80;21137;-59
2022/02/07 06:36:27;;;;;;;12.28;6.42;;;;;;;5.15;58.76;99033.12;1749146;80;20994;-59
2022/02/07 06:38:57;;;;;;;12.13;6.50;;;;;;;5.17;58.85;99026.00;1744047;80;21598;-59
2022/02/07 06:41:25;;;;;;;12.33;6.25;;;;;;;5.25;58.82;99019.70;1753453;80;21043;-59
2022/02/07 06:43:53;;;;;;;11.12;6.78;;;;;;;5.35;58.90;99012.80;1728632;80;21555;-58
2022/02/07 06:46:20;;;;;;;9.88;6.03;;;;;;;5.47;58.93;99011.45;1726507;81;22016;-60
2022/02/07 06:48:47;;;;;;;12.10;6.65;;;;;;;5.55;58.88;99003.84;1742502;80;21575;-59
2022/02/07 06:51:15;;;;;;;13.72;6.60;;;;;;;5.62;58.81;99002.87;1748119;80;21109;-59
2022/02/07 06:53:43;;;;;;;13.18;6.72;;;;;;;5.66;58.84;98997.25;1744911;80;21899;-59
2022/02/07 06:56:10;;;;;;;9.93;5.47;;;;;;;5.73;58.67;99003.64;1745404;80;22314;-60
2022/02/07 06:58:38;;;;;;;8.60;4.72;;;;;;;5.79;58.49;99013.23;1729868;80;21251;-60
2022/02/07 07:01:06;;;;;;;10.13;5.03;;;;;;;5.79;58.43;99001.48;1744739;80;21114;-60
2022/02/07 07:03:38;;;;;;;8.65;5.03;;;;;;;5.76;58.55;98999.45;1745332;80;21065;-60
2022/02/07 07:06:05;;;;;;;11.38;4.95;;;;;;;5.75;58.33;98992.59;1752338;80;20996;-60
2022/02/07 07:08:37;;;;;;;10.98;5.65;;;;;;;5.75;58.11;99009.56;1750015;80;21090;-60
2022/02/07 07:11:03;;;;;;;11.40;5.60;;;;;;;5.77;57.77;99007.65;1748301;80;21147;-59
2022/02/07 07:13:39;;;;;;;10.50;5.17;;;;;;;5.73;57.68;99019.77;1732163;80;21042;-59
2022/02/07 07:16:00;;;;;;;8.60;4.30;;;;;;;5.71;57.27;99019.06;1748370;80;21527;-60
2022/02/07 07:18:27;;;;;;;9.05;4.65;;;;;;;5.67;57.21;99016.37;1747891;80;21050;-59
2022/02/07 07:20:54;;;;;;;10.40;4.10;;;;;;;5.66;57.24;99025.95;1727265;80;21620;-60
2022/02/07 07:23:21;;;;;;;8.50;4.10;;;;;;;5.70;57.04;99026.08;1749877;80;21131;-60
2022/02/07 07:25:49;;;;;;;11.33;4.08;;;;;;;5.80;56.13;99019.63;1737863;80;21174;-60
2022/02/07 07:28:18;;;;;;;9.18;3.87;;;;;;;5.89;56.00;99018.05;1745539;80;21548;-60
2022/02/07 07:30:52;;;;;;;9.48;3.60;;;;;;;5.91;55.91;99009.60;1745278;80;21390;-60
2022/02/07 07:33:20;;;;;;;5.87;3.22;;;;;;;5.92;55.51;99013.88;1742472;80;21136;-59
2022/02/07 07:35:44;;;;;;;7.35;3.15;;;;;;;5.90;55.92;99010.55;1739429;80;21101;-59
2022/02/07 07:38:11;;;;;;;9.35;3.75;;;;;;;5.92;56.10;99009.96;1742637;80;21023;-60
2022/02/07 07:40:40;;;;;;;7.03;3.87;;;;;;;5.91;56.19;98999.16;1724256;81;21134;-59
2022/02/07 07:43:09;;;;;;;8.53;4.12;;;;;;;5.88;56.30;99001.53;1745653;80;21086;-59
2022/02/07 07:46:08;;;;;;;9.25;4.53;;;;;;;5.86;56.60;98992.19;1741142;80;21117;-58
2022/02/07 07:48:37;;;;;;;8.65;3.40;;;;;;;5.84;56.86;98983.66;1744158;79;21202;-59
2022/02/07 07:51:33;;;;;;;7.08;4.17;;;;;;;5.79;57.15;98989.25;1695012;80;20998;-59
2022/02/07 07:54:13;;;;;;;7.08;3.55;;;;;;;5.81;57.32;98990.44;1744578;80;21502;-59
2022/02/07 08:02:01;;;;;;;10.75;4.80;;;;;;;5.85;57.75;98987.91;1745824;80;22100;-58
2022/02/07 08:04:29;;;;;;;10.30;4.30;;;;;;;5.95;57.55;98986.19;1748177;80;21149;-58
2022/02/07 08:12:18;;;;;;;10.93;4.95;;;;;;;6.07;56.62;98997.42;1728429;80;21900;-58
2022/02/07 08:14:46;;;;;;;8.33;4.80;;;;;;;6.03;56.75;98992.94;1743044;80;22136;-59
2022/02/07 08:17:14;;;;;;;8.73;4.75;;;;;;;6.02;56.67;98999.59;1746003;80;21114;-59
2022/02/07 08:19:44;;;;;;;11.03;5.20;;;;;;;5.98;56.71;98996.41;1730039;80;21044;-59
2022/02/07 08:22:09;;;;;;;10.48;4.92;;;;;;;5.96;56.95;98991.80;1744021;80;21737;-59
2022/02/07 08:24:37;;;;;;;11.28;4.70;;;;;;;5.95;56.97;98992.71;1747238;80;21708;-60
2022/02/07 08:27:05;;;;;;;10.60;5.70;;;;;;;5.93;57.15;98988.10;1744009;80;21218;-62
2022/02/07 08:29:31;;;;;;;8.15;4.80;;;;;;;5.88;57.11;98996.80;1748307;80;21124;-61
2022/02/07 08:31:58;;;;;;;10.13;4.95;;;;;;;5.85;56.76;98986.60;1744173;80;21054;-60
2022/02/07 08:34:24;;;;;;;13.95;4.92;;;;;;;5.84;56.67;98979.75;1741955;80;21058;-59
2022/02/07 08:36:52;;;;;;;10.43;5.22;;;;;;;5.83;56.72;98988.03;1747768;80;21030;-60
2022/02/07 08:39:19;;;;;;;7.40;3.95;;;;;;;5.80;57.02;98981.78;1731104;81;21078;-58
2022/02/07 08:41:45;;;;;;;7.40;3.60;;;;;;;5.79;56.90;98985.83;1745148;80;21066;-60
2022/02/07 08:44:12;;;;;;;8.05;4.05;;;;;;;5.76;56.86;98979.87;1748791;80;21003;-59
2022/02/07 08:46:38;;;;;;;8.75;4.00;;;;;;;5.75;57.08;98980.85;1748284;80;21998;-59
2022/02/07 08:49:05;;;;;;;10.30;3.83;;;;;;;5.83;57.09;98975.47;1724433;80;21047;-59
2022/02/07 08:51:33;;;;;;;8.98;3.20;;;;;;;5.84;57.11;98967.52;1747222;80;21141;-59
2022/02/07 08:54:05;;;;;;;10.10;3.77;;;;;;;5.84;57.20;98968.81;1730691;80;21030;-60
2022/02/07 08:56:51;;;;;;;8.88;3.87;;;;;;;5.86;57.17;98971.30;1730493;80;21151;-59
2022/02/07 08:59:12;;;;;;;7.15;3.65;;;;;;;5.86;57.22;98968.69;1747740;80;21711;-60
2022/02/07 09:02:05;;;;;;;8.03;3.67;;;;;;;5.83;57.14;98966.33;1744997;80;21090;-60
2022/02/07 09:07:04;;;;;;;8.95;4.67;;;;;;;5.72;57.50;98947.66;1749479;80;21172;-61
2022/02/07 09:09:25;;;;;;;9.78;4.47;;;;;;;5.16;58.68;98953.92;1732495;80;21028;-60
2022/02/07 09:11:52;;;;;;;6.70;3.60;;;;;;;4.72;60.17;98951.77;1731401;80;21098;-60
2022/02/07 09:14:22;;;;;;;9.88;4.65;;;;;;;4.65;60.48;98948.83;1730618;80;21059;-60
2022/02/07 09:16:49;;;;;;;10.88;4.30;;;;;;;4.59;60.58;98945.39;1726726;80;21560;-60
2022/02/07 09:19:19;;;;;;;7.35;3.50;;;;;;;4.55;60.57;98947.41;1735614;80;21091;-61
2022/02/07 09:21:44;;;;;;;7.95;3.55;;;;;;;4.52;60.43;98941.13;1738529;80;21054;-61
2022/02/07 09:24:11;;;;;;;8.03;3.87;;;;;;;4.52;60.48;98946.34;1736735;80;21098;-59
2022/02/07 09:26:37;;;;;;;6.72;3.37;;;;;;;4.55;60.61;98948.70;1733436;80;21541;-59
2022/02/07 09:29:04;;;;;;;8.38;3.47;;;;;;;4.61;60.52;98952.14;1736635;80;21132;-60
2022/02/07 09:31:31;;;;;;;7.62;4.55;;;;;;;4.73;60.55;98948.23;1732092;80;21123;-59
2022/02/07 09:33:57;;;;;;;9.78;5.50;;;;;;;4.81;60.47;98953.67;1732740;80;21043;-59
2022/02/07 09:36:24;;;;;;;11.30;4.87;;;;;;;4.84;60.30;98942.98;1723720;80;21075;-60
2022/02/07 09:38:51;;;;;;;13.45;6.00;;;;;;;4.90;60.23;98933.37;1717811;80;21537;-60
2022/02/07 09:41:20;;;;;;;13.70;5.25;;;;;;;4.95;60.09;98933.02;1725287;80;21109;-60
2022/02/07 09:43:49;;;;;;;8.63;5.42;;;;;;;4.97;59.87;98932.41;1720913;81;21040;-59
2022/02/07 09:46:21;;;;;;;11.03;5.28;;;;;;;4.99;59.46;98935.72;1764495;79;21043;-58
2022/02/07 09:48:46;;;;;;;10.90;5.25;;;;;;;4.99;59.39;98926.59;1735730;80;21047;-59
2022/02/07 09:51:12;;;;;;;10.50;5.12;;;;;;;4.96;59.37;98922.93;1730731;80;21122;-59
2022/02/07 09:53:40;;;;;;;10.75;4.97;;;;;;;4.94;59.50;98918.32;1717586;81;21328;-60
2022/02/07 09:56:08;;;;;;;10.03;5.15;;;;;;;4.92;59.76;98909.31;1718838;80;21059;-59
2022/02/07 09:58:38;;;;;;;11.50;5.33;;;;;;;4.95;60.01;98910.37;1722362;80;21575;-62
2022/02/07 10:01:09;;;;;;;9.68;5.22;;;;;;;4.99;59.50;98919.63;1731251;80;21134;-60
2022/02/07 10:04:09;;;;;;;9.55;5.00;;;;;;;5.03;59.47;98926.23;1735928;80;21040;-59
2022/02/07 10:06:37;;;;;;;8.33;5.00;;;;;;;5.06;59.37;98934.30;1721580;80;21170;-60
2022/02/07 10:09:13;;;;;;;9.58;4.80;;;;;;;5.08;59.21;98931.09;1732219;80;21226;-59
2022/02/07 10:11:52;;;;;;;9.53;4.95;;;;;;;5.11;59.27;98939.97;1738916;80;21533;-60
2022/02/07 10:14:20;;;;;;;9.10;5.15;;;;;;;5.16;59.23;98948.70;1740928;79;21117;-60
2022/02/07 10:16:54;;;;;;;10.55;4.58;;;;;;;5.17;58.91;98951.68;1742700;80;21671;-59
2022/02/07 10:19:41;;;;;;;7.62;4.62;;;;;;;5.18;58.81;98951.56;1743650;80;21114;-59
2022/02/07 10:36:47;;;;;;;6.72;3.33;;;;;;;5.10;57.27;98965.68;1751587;79;21070;-59
2022/02/07 10:44:48;;;;;;;8.15;3.55;;;;;;;4.99;57.22;98970.91;1744655;80;21047;-59
2022/02/07 10:47:20;;;;;;;8.85;4.28;;;;;;;4.97;57.37;98972.34;1743566;80;21094;-59
2022/02/07 10:50:08;;;;;;;6.83;3.58;;;;;;;4.98;57.53;98974.00;1739591;80;22327;-59
2022/02/07 10:52:57;;;;;;;13.15;5.08;;;;;;;5.00;57.32;98962.97;1726200;81;21046;-59
2022/02/07 10:55:35;;;;;;;11.65;4.78;;;;;;;5.00;57.46;98972.58;1738543;80;21074;-60
2022/02/07 10:58:05;;;;;;;9.85;4.20;;;;;;;5.02;56.81;98959.77;1744761;80;21026;-60
2022/02/07 11:00:37;;;;;;;7.70;3.95;;;;;;;5.00;56.76;98964.28;1741560;80;21108;-59
2022/02/07 11:03:10;;;;;;;7.58;4.12;;;;;;;4.99;56.89;98965.25;1741973;80;21516;-60
2022/02/07 11:05:47;;;;;;;6.25;3.47;;;;;;;5.00;57.04;98962.16;1713990;80;21903;-60
2022/02/07 11:08:26;;;;;;;7.30;3.67;;;;;;;5.00;56.89;98956.94;1735879;80;21135;-59
2022/02/07 11:11:51;;;;;;;7.65;3.77;;;;;;;5.00;56.89;98956.94;1733922;80;20997;-60
2022/02/07 11:13:44;;;;;;;8.43;3.67;;;;;;;5.00;56.87;98959.55;1714597;80;21553;-60
2022/02/07 11:16:05;;;;;;;8.40;3.55;;;;;;;4.99;57.15;98957.42;1719452;81;21037;-59
2022/02/07 11:19:01;;;;;;;7.12;3.87;;;;;;;4.99;57.26;98953.52;1734831;80;21715;-60
2022/02/07 11:21:36;;;;;;;8.20;4.30;;;;;;;5.00;57.44;98941.30;1717750;80;21122;-60
2022/02/07 11:27:34;;;;;;;9.08;4.05;;;;;;;4.93;58.05;98932.33;1737085;80;21808;-59
2022/02/07 11:30:06;;;;;;;8.23;4.03;;;;;;;4.90;58.67;98929.95;1733923;80;21087;-61
2022/02/07 11:32:52;;;;;;;8.00;4.10;;;;;;;4.87;59.04;98922.38;1703532;82;21023;-61
2022/02/07 11:35:27;;;;;;;6.78;2.95;;;;;;;4.82;59.26;98907.95;1677488;82;21536;-60
2022/02/07 11:38:05;;;;;;;6.55;3.67;;;;;;;4.90;59.54;98899.98;1689510;83;21143;-58
2022/02/07 11:40:39;;;;;;;10.18;3.87;;;;;;;5.00;59.62;98878.73;1736814;80;21157;-59
2022/02/07 11:43:19;;;;;;;8.55;3.90;;;;;;;5.06;59.71;98866.97;1739386;80;21066;-60
2022/02/07 11:46:11;;;;;;;7.72;4.45;;;;;;;5.07;59.61;98861.63;1723653;81;21078;-61
2022/02/07 11:48:50;;;;;;;7.17;4.08;;;;;;;5.05;59.93;98845.30;1718830;81;21035;-60
2022/02/07 11:51:21;;;;;;;8.80;4.47;;;;;;;5.06;59.79;98850.02;1730745;80;21028;-60
2022/02/07 11:54:02;;;;;;;9.18;4.25;;;;;;;5.05;59.84;98841.87;1731739;80;21146;-59
2022/02/07 11:56:48;;;;;;;12.98;3.98;;;;;;;5.03;59.85;98852.42;1715588;80;21066;-59
2022/02/07 11:59:38;;;;;;;8.20;3.77;;;;;;;5.02;59.76;98850.75;1723856;80;21586;-57
2022/02/07 12:02:15;;;;;;;8.68;3.77;;;;;;;4.99;59.81;98858.82;1722506;81;21083;-60
2022/02/07 12:04:48;;;;;;;10.30;5.00;;;;;;;5.02;59.77;98871.61;1730674;80;21134;-60
2022/02/07 12:07:32;;;;;;;8.45;4.30;;;;;;;5.03;59.80;98886.31;1735675;80;21110;-59
2022/02/07 12:12:47;;;;;;;7.72;3.65;;;;;;;5.08;59.63;98884.61;1748018;80;21129;-60
2022/02/07 12:15:45;;;;;;;8.03;3.75;;;;;;;5.12;59.67;98909.02;1747597;80;21560;-60
2022/02/07 12:18:15;;;;;;;11.30;4.70;;;;;;;5.19;59.73;98914.56;1745286;80;21543;-60
2022/02/07 12:20:44;;;;;;;;;;;;;;;5.24;59.72;98915.02;1776598;78;22423;-60
2022/02/07 12:23:19;;;;;;;8.83;4.25;;;;;;;5.35;59.37;98926.72;1744630;80;20609;-59
2022/02/07 12:25:56;;;;;;;8.68;3.80;;;;;;;5.34;59.13;98925.05;1745496;80;21089;-59
2022/02/07 12:29:47;;;;;;;8.43;4.15;;;;;;;5.38;59.04;98943.42;1750532;80;21673;-59
2022/02/07 12:31:18;;;;;;;9.00;4.22;;;;;;;5.51;58.91;98948.94;1720417;80;21035;-59
2022/02/07 12:34:03;;;;;;;11.50;5.22;;;;;;;5.65;58.90;98947.80;1728459;80;21359;-58
2022/02/07 12:36:33;;;;;;;8.40;4.20;;;;;;;5.85;58.25;98956.13;1687209;83;21030;-59
2022/02/07 12:39:04;;;;;;;9.50;4.30;;;;;;;6.14;57.52;98951.58;1712733;82;21342;-59
2022/02/07 12:41:33;;;;;;;9.33;4.78;;;;;;;6.31;56.76;98948.84;1690701;82;21211;-59
2022/02/07 12:44:01;;;;;;;8.45;4.12;;;;;;;6.38;56.31;98948.66;1676780;83;21022;-59
2022/02/07 12:46:29;;;;;;;7.45;4.33;;;;;;;6.47;56.53;98945.27;1690887;82;21224;-59
2022/02/07 12:48:57;;;;;;;10.25;4.65;;;;;;;6.57;56.21;98937.92;1640042;82;21094;-58
2022/02/07 12:51:27;;;;;;;9.93;4.60;;;;;;;6.63;55.72;98942.14;1695915;82;21079;-59
2022/02/07 12:53:54;;;;;;;11.55;5.08;;;;;;;6.75;55.26;98931.09;1663470;84;21083;-60
2022/02/07 12:56:22;;;;;;;7.10;4.03;;;;;;;8.05;53.37;98924.73;1690978;82;21031;-59
2022/02/07 12:58:51;;;;;;;8.20;3.90;;;;;;;9.49;50.49;98923.24;1666689;82;21088;-58
2022/02/07 13:01:34;;;;;;;9.23;4.90;;;;;;;10.92;48.14;98913.99;1686082;82;21074;-59
2022/02/07 13:04:11;;;;;;;7.95;4.47;;;;;;;12.33;45.08;98910.84;1687607;83;21087;-59
2022/02/07 13:06:47;;;;;;;8.08;4.15;;;;;;;13.80;42.18;98905.63;1723803;81;21055;-59
2022/02/07 13:09:31;;;;;;;8.68;3.75;;;;;;;15.02;39.49;98909.17;1652855;83;21109;-58
2022/02/07 13:12:12;;;;;;;7.50;4.40;;;;;;;15.90;37.60;98915.09;1740216;80;21141;-59
2022/02/07 13:14:41;;;;;;;9.20;4.20;;;;;;;16.45;35.80;98916.52;1704857;82;21074;-60
2022/02/07 13:17:07;;;;;;;8.37;3.87;;;;;;;16.71;34.96;98922.98;1704758;80;21054;-60
2022/02/07 13:19:36;;;;;;;8.35;4.05;;;;;;;16.90;34.92;98922.77;1733633;80;21069;-59
2022/02/07 13:22:04;;;;;;;10.93;3.85;;;;;;;17.26;34.53;98929.10;1736272;80;21460;-58
2022/02/07 13:24:33;;;;;;;8.18;4.20;;;;;;;17.77;33.37;98941.00;1713426;82;21097;-59
2022/02/07 13:27:03;;;;;;;7.60;3.65;;;;;;;18.10;32.82;98942.83;1738059;80;21007;-59
2022/02/07 13:29:44;;;;;;;7.97;4.78;;;;;;;18.29;32.23;98947.00;1743584;80;21010;-59
2022/02/07 13:32:13;;;;;;;8.98;4.85;;;;;;;18.40;32.17;98953.55;1740317;80;21035;-59
2022/02/07 13:34:40;;;;;;;10.18;3.77;;;;;;;18.62;31.79;98951.44;1739133;80;21073;-59
2022/02/07 13:37:26;;;;;;;8.45;3.90;;;;;;;18.59;31.12;98963.83;1712839;80;21783;-60
2022/02/07 13:40:05;;;;;;;7.55;3.80;;;;;;;18.31;31.22;98953.77;1738069;80;21044;-59
2022/02/07 13:42:36;;;;;;;9.70;4.08;;;;;;;18.11;31.35;98947.67;1740856;80;21738;-60
2022/02/07 13:45:09;;;;;;;8.03;4.65;;;;;;;18.04;31.50;98949.00;1738316;80;21512;-60
2022/02/07 13:47:43;;;;;;;8.43;4.33;;;;;;;18.08;31.72;98954.73;1709232;82;21022;-60
2022/02/07 13:50:12;;;;;;;6.70;3.60;;;;;;;18.12;31.92;98949.28;1711068;80;22004;-60
2022/02/07 13:52:43;;;;;;;7.62;3.70;;;;;;;18.12;31.89;98946.63;1709728;80;21302;-59
2022/02/07 13:55:37;;;;;;;7.17;3.95;;;;;;;18.02;31.84;98945.70;1713174;80;21022;-59
2022/02/07 13:58:13;;;;;;;6.62;4.03;;;;;;;17.60;31.86;98942.41;1736010;80;21092;-59
2022/02/07 14:00:51;;;;;;;7.58;3.92;;;;;;;16.89;32.68;98941.05;1739334;80;21143;-60
2022/02/07 14:03:32;;;;;;;8.78;3.87;;;;;;;16.51;33.30;98944.14;1740042;80;21132;-60
2022/02/07 14:06:12;;;;;;;8.78;4.08;;;;;;;15.96;34.20;98950.63;1731635;80;21069;-59
2022/02/07 14:08:55;;;;;;;10.90;4.28;;;;;;;15.40;34.74;98944.21;1736306;80;21070;-59
2022/02/07 14:11:29;;;;;;;8.30;4.37;;;;;;;14.68;35.61;98954.31;1740060;80;21049;-59
2022/02/07 14:14:05;;;;;;;6.40;3.33;;;;;;;13.94;36.90;98953.24;1709335;80;21069;-58
2022/02/07 14:16:33;;;;;;;6.75;4.28;;;;;;;13.37;37.88;98957.17;1739346;80;21795;-58